createdAt,value
2023-08-22T00:01:23.166Z,100727.77
2023-08-22T00:06:25.924Z,100728.48
2023-08-22T00:11:28.699Z,100722.64
2023-08-22T00:16:31.398Z,100728.48
2023-08-22T00:21:34.141Z,100729.92
2023-08-22T00:26:36.829Z,100723.21
2023-08-22T00:31:39.671Z,100724.02
2023-08-22T00:36:42.548Z,100728.20
2023-08-22T00:41:45.264Z,100731.11
2023-08-22T00:46:48.115Z,100734.34
2023-08-22T00:51:51.750Z,100728.66
2023-08-22T00:56:55.135Z,100732.04
2023-08-22T01:01:58.028Z,100733.27
2023-08-22T01:07:17.892Z,100726.58
2023-08-22T01:12:50.313Z,100722.99
2023-08-22T01:17:58.782Z,100724.58
2023-08-22T01:23:01.744Z,100726.52
2023-08-22T01:28:10.596Z,100727.66
2023-08-22T01:33:22.162Z,100721.38
2023-08-22T01:38:28.529Z,100716.73
2023-08-22T01:43:35.055Z,100717.45
2023-08-22T01:48:38.191Z,100716.21
2023-08-22T01:53:40.963Z,100725.88
2023-08-22T01:58:43.660Z,100728.39
2023-08-22T02:03:47.569Z,100727.31
2023-08-22T02:08:50.473Z,100727.23
2023-08-22T02:13:53.257Z,100717.96
2023-08-22T02:18:56.815Z,100712.05
2023-08-22T02:23:59.531Z,100716.39
2023-08-22T02:29:02.374Z,100720.46
2023-08-22T02:34:05.696Z,100722.68
2023-08-22T02:39:09.310Z,100722.58
2023-08-22T02:44:13.453Z,100720.13
2023-08-22T02:49:16.165Z,100718.70
2023-08-22T02:54:19.050Z,100718.62
2023-08-22T02:59:21.693Z,100716.02
2023-08-22T03:04:24.468Z,100713.93
2023-08-22T03:09:27.402Z,100709.05
2023-08-22T03:14:30.119Z,100706.22
2023-08-22T03:19:32.859Z,100698.66
2023-08-22T03:24:35.646Z,100695.17
2023-08-22T03:29:38.363Z,100693.27
2023-08-22T03:34:41.179Z,100684.86
2023-08-22T03:39:43.906Z,100670.41
2023-08-22T03:44:47.155Z,100666.79
2023-08-22T03:49:49.986Z,100669.51
2023-08-22T03:54:52.742Z,100680.06
2023-08-22T03:59:55.506Z,100673.81
2023-08-22T04:04:59.105Z,100674.97
2023-08-22T04:10:03.283Z,100697.59
2023-08-22T04:15:06.561Z,100689.52
2023-08-22T04:20:11.659Z,100680.18
2023-08-22T04:25:14.473Z,100686.73
2023-08-22T04:30:17.488Z,100677.88
2023-08-22T04:35:20.238Z,100674.77
2023-08-22T04:40:22.997Z,100666.83
2023-08-22T04:45:25.737Z,100666.71
2023-08-22T04:50:30.223Z,100669.17
2023-08-22T04:55:33.008Z,100675.60
2023-08-22T05:00:35.658Z,100684.73
2023-08-22T05:05:38.443Z,100684.73
2023-08-22T05:10:41.127Z,100694.77
2023-08-22T05:15:44.736Z,100700.02
2023-08-22T05:20:53.026Z,100705.65
2023-08-22T05:25:55.740Z,100707.61
2023-08-22T05:30:58.441Z,100708.26
2023-08-22T05:36:01.707Z,100719.58
2023-08-22T05:41:04.563Z,100732.86
2023-08-22T05:46:07.365Z,100739.17
2023-08-22T05:51:10.142Z,100742.10
2023-08-22T05:56:12.938Z,100745.30
2023-08-22T06:01:16.761Z,100756.62
2023-08-22T06:06:19.596Z,100757.31
2023-08-22T06:11:22.591Z,100758.84
2023-08-22T06:16:25.374Z,100761.28
2023-08-22T06:21:28.148Z,100761.61
2023-08-22T06:26:30.872Z,100761.09
2023-08-22T06:31:33.787Z,100753.44
2023-08-22T06:36:36.496Z,100750.83
2023-08-22T06:41:39.197Z,100759.67
2023-08-22T06:46:42.620Z,100756.86
2023-08-22T06:51:45.481Z,100755.70
2023-08-22T06:56:48.272Z,100748.97
2023-08-22T07:01:51.041Z,100745.83
2023-08-22T07:06:53.881Z,100743.69
2023-08-22T07:11:56.645Z,100742.67
2023-08-22T07:16:59.454Z,100741.67
2023-08-22T07:22:02.247Z,100728.02
2023-08-22T07:27:05.061Z,100725.70
2023-08-22T07:32:09.929Z,100734.01
2023-08-22T07:37:14.215Z,100749.58
2023-08-22T07:42:17.734Z,100751.98
2023-08-22T07:47:20.493Z,100766.57
2023-08-22T07:52:23.273Z,100772.42
2023-08-22T07:57:26.059Z,100764.74
2023-08-22T08:02:29.238Z,100761.81
2023-08-22T08:07:32.172Z,100763.69
2023-08-22T08:12:35.099Z,100753.64
2023-08-22T08:17:38.027Z,100734.87
2023-08-22T08:22:40.862Z,100708.64
2023-08-22T08:27:43.604Z,100697.66
2023-08-22T08:32:46.650Z,100695.30
2023-08-22T08:37:50.886Z,100684.39
2023-08-22T08:42:53.829Z,100690.48
2023-08-22T08:48:00.244Z,100707.18
2023-08-22T08:53:03.480Z,100718.73
2023-08-22T08:58:06.290Z,100707.70
2023-08-22T09:03:10.259Z,100722.52
2023-08-22T09:08:18.261Z,100732.18
2023-08-22T09:13:42.026Z,100762.67
2023-08-22T09:18:52.098Z,100780.27
2023-08-22T09:24:06.349Z,100767.30
2023-08-22T09:29:09.147Z,100746.95
2023-08-22T09:34:14.020Z,100731.41
2023-08-22T09:39:20.908Z,100729.52
2023-08-22T09:44:25.421Z,100720.84
2023-08-22T09:49:31.175Z,100740.97
2023-08-22T09:54:34.345Z,100743.00
2023-08-22T09:59:39.146Z,100745.42
2023-08-22T10:04:42.759Z,100754.14
2023-08-22T10:09:45.665Z,100756.92
2023-08-22T10:14:53.115Z,100753.55
2023-08-22T10:20:08.550Z,100738.33
2023-08-22T10:25:11.355Z,100722.48
2023-08-22T10:30:14.090Z,100725.11
2023-08-22T10:35:19.454Z,100716.09
2023-08-22T10:40:33.291Z,100733.73
2023-08-22T10:45:57.122Z,100743.08
2023-08-22T10:51:07.535Z,100740.41
2023-08-22T10:56:24.949Z,100737.08
2023-08-22T11:01:29.165Z,100744.73
2023-08-22T11:06:31.931Z,100766.33
2023-08-22T11:11:36.194Z,100758.15
2023-08-22T11:16:39.584Z,100743.47
2023-08-22T11:21:42.362Z,100748.25
2023-08-22T11:26:45.121Z,100740.66
2023-08-22T11:31:47.850Z,100724.95
2023-08-22T11:36:50.593Z,100705.52
2023-08-22T11:41:53.344Z,100701.27
2023-08-22T11:46:56.104Z,100688.63
2023-08-22T11:51:58.846Z,100693.61
2023-08-22T11:57:02.230Z,100692.59
2023-08-22T12:02:05.069Z,100687.61
2023-08-22T12:07:07.867Z,100679.38
2023-08-22T12:12:15.558Z,100685.51
2023-08-22T12:17:19.980Z,100679.91
2023-08-22T12:22:22.719Z,100686.16
2023-08-22T12:27:28.671Z,100684.91
2023-08-22T12:32:35.212Z,100673.54
2023-08-22T12:37:39.393Z,100671.97
2023-08-22T12:42:43.190Z,100669.11
2023-08-22T12:47:46.277Z,100671.92
2023-08-22T12:52:49.701Z,100671.05
2023-08-22T12:57:52.977Z,100664.34
2023-08-22T13:02:57.235Z,100662.73
2023-08-22T13:08:00.111Z,100664.11
2023-08-22T13:13:04.391Z,100670.51
2023-08-22T13:18:07.287Z,100673.58
2023-08-22T13:23:10.059Z,100671.50
2023-08-22T13:28:14.069Z,100662.52
2023-08-22T13:33:17.011Z,100662.16
2023-08-22T13:38:19.792Z,100655.50
2023-08-22T13:43:22.547Z,100648.91
2023-08-22T13:48:25.303Z,100645.02
2023-08-22T13:53:30.723Z,100645.02
2023-08-22T13:58:33.497Z,100635.48
2023-08-22T14:03:37.292Z,100639.85
2023-08-22T14:08:40.880Z,100617.08
2023-08-22T14:13:44.407Z,100618.52
2023-08-22T14:18:47.513Z,100627.08
2023-08-22T14:23:50.314Z,100622.91
2023-08-22T14:28:53.191Z,100624.91
2023-08-22T14:33:55.917Z,100618.25
2023-08-22T14:38:58.730Z,100620.54
2023-08-22T14:44:02.223Z,100620.23
2023-08-22T14:49:05.010Z,100615.59
2023-08-22T14:54:07.790Z,100601.83
2023-08-22T14:59:11.334Z,100599.27
2023-08-22T15:04:14.105Z,100599.88
2023-08-22T15:09:16.832Z,100591.12
2023-08-22T15:14:19.662Z,100595.64
2023-08-22T15:19:22.426Z,100597.05
2023-08-22T15:24:25.145Z,100587.64
2023-08-22T15:29:27.879Z,100587.95
2023-08-22T15:34:30.586Z,100585.30
2023-08-22T15:39:33.378Z,100577.91
2023-08-22T15:44:36.247Z,100578.64
2023-08-22T15:49:38.976Z,100572.71
2023-08-22T15:54:42.549Z,100562.27
2023-08-22T15:59:46.353Z,100563.15
2023-08-22T16:04:49.366Z,100545.91
2023-08-22T16:09:52.112Z,100542.82
2023-08-22T16:14:54.846Z,100540.52
2023-08-22T16:19:57.576Z,100546.55
2023-08-22T16:25:00.301Z,100536.52
2023-08-22T16:30:03.376Z,100527.13
2023-08-22T16:35:06.654Z,100518.98
2023-08-22T16:40:15.794Z,100516.56
2023-08-22T16:45:18.576Z,100507.20
2023-08-22T16:50:21.347Z,100510.83
2023-08-22T16:55:24.591Z,100508.77
2023-08-22T17:00:27.497Z,100510.73
2023-08-22T17:05:32.576Z,100506.91
2023-08-22T17:10:35.326Z,100510.53
2023-08-22T17:15:38.100Z,100518.85
2023-08-22T17:20:40.870Z,100529.64
2023-08-22T17:25:43.614Z,100515.45
2023-08-22T17:30:46.378Z,100497.90
2023-08-22T17:35:49.136Z,100495.52
2023-08-22T17:40:51.879Z,100505.42
2023-08-22T17:45:54.758Z,100500.41
2023-08-22T17:50:59.538Z,100499.77
2023-08-22T17:56:03.257Z,100509.89
2023-08-22T18:01:08.078Z,100512.48
2023-08-22T18:06:10.831Z,100512.77
2023-08-22T18:11:14.349Z,100511.59
2023-08-22T18:16:17.182Z,100514.92
2023-08-22T18:21:19.972Z,100520.92
2023-08-22T18:26:22.940Z,100515.52
2023-08-22T18:31:27.541Z,100516.88
2023-08-22T18:36:30.470Z,100521.19
2023-08-22T18:41:33.525Z,100521.66
2023-08-22T18:46:36.451Z,100531.61
2023-08-22T18:51:39.221Z,100526.64
2023-08-22T18:56:42.242Z,100523.52
2023-08-22T19:01:45.910Z,100523.96
2023-08-22T19:06:48.773Z,100530.59
2023-08-22T19:11:51.559Z,100528.91
2023-08-22T19:16:54.266Z,100525.47
2023-08-22T19:21:57.039Z,100524.78
2023-08-22T19:26:59.682Z,100521.88
2023-08-22T19:32:17.194Z,100522.18
2023-08-22T19:37:24.398Z,100521.16
2023-08-22T19:42:27.205Z,100523.98
2023-08-22T19:47:30.121Z,100522.91
2023-08-22T19:52:33.241Z,100521.00
2023-08-22T19:57:36.090Z,100516.08
2023-08-22T20:02:38.897Z,100514.80
2023-08-22T20:07:41.655Z,100518.40
2023-08-22T20:12:44.974Z,100520.73
2023-08-22T20:17:48.130Z,100521.59
2023-08-22T20:22:51.285Z,100517.47
2023-08-22T20:27:54.048Z,100513.70
2023-08-22T20:32:56.942Z,100509.56
2023-08-22T20:37:59.699Z,100509.95
2023-08-22T20:43:02.453Z,100512.82
2023-08-22T20:48:05.741Z,100521.69
2023-08-22T20:53:08.564Z,100525.27
2023-08-22T20:58:11.314Z,100531.19
2023-08-22T21:03:14.217Z,100529.65
2023-08-22T21:08:17.908Z,100526.78
2023-08-22T21:13:20.704Z,100531.00
2023-08-22T21:18:23.509Z,100525.92
2023-08-22T21:23:26.282Z,100533.97
2023-08-22T21:28:29.035Z,100543.38
2023-08-22T21:33:31.827Z,100545.33
2023-08-22T21:38:34.657Z,100544.33
2023-08-22T21:43:37.396Z,100553.36
2023-08-22T21:48:40.297Z,100552.25
2023-08-22T21:53:43.000Z,100555.29
2023-08-22T21:58:45.791Z,100554.38
2023-08-22T22:03:48.613Z,100558.02
2023-08-22T22:08:51.430Z,100556.02
2023-08-22T22:13:54.224Z,100552.20
2023-08-22T22:18:57.109Z,100550.73
2023-08-22T22:23:59.838Z,100545.38
2023-08-22T22:29:02.603Z,100544.80
2023-08-22T22:34:06.237Z,100544.85
2023-08-22T22:39:09.169Z,100539.33
2023-08-22T22:44:11.925Z,100538.92
2023-08-22T22:49:14.634Z,100533.88
2023-08-22T22:54:17.363Z,100535.21
2023-08-22T22:59:20.527Z,100531.88
2023-08-22T23:04:23.350Z,100537.70
2023-08-22T23:09:26.150Z,100540.69
2023-08-22T23:14:29.511Z,100541.77
2023-08-22T23:19:32.274Z,100538.59
2023-08-22T23:24:35.145Z,100530.49
2023-08-22T23:29:37.889Z,100524.54
2023-08-22T23:34:41.494Z,100522.58
2023-08-22T23:39:44.274Z,100517.56
2023-08-22T23:44:48.517Z,100514.31
2023-08-22T23:49:51.408Z,100513.56
2023-08-22T23:54:54.140Z,100514.16
2023-08-22T23:59:56.882Z,100509.75
